createdAt,value
2019-02-25T00:00:27.932Z,61
2019-02-25T00:01:27.945Z,60
2019-02-25T00:02:27.967Z,60
2019-02-25T00:03:30.254Z,60
2019-02-25T00:04:27.982Z,60
2019-02-25T00:05:27.992Z,60
2019-02-25T00:06:28.010Z,61
2019-02-25T00:07:28.011Z,60
2019-02-25T00:08:28.024Z,61
2019-02-25T00:09:28.034Z,60
2019-02-25T00:10:28.082Z,60
2019-02-25T00:11:28.123Z,60
2019-02-25T00:12:28.204Z,60
2019-02-25T00:13:28.235Z,60
2019-02-25T00:14:28.307Z,59
2019-02-25T00:15:28.329Z,60
2019-02-25T00:16:28.337Z,59
2019-02-25T00:17:28.348Z,59
2019-02-25T00:18:28.448Z,60
2019-02-25T00:19:28.503Z,59
2019-02-25T00:20:28.542Z,59
2019-02-25T00:21:28.543Z,59
2019-02-25T00:22:28.618Z,59
2019-02-25T00:23:28.681Z,59
2019-02-25T00:24:28.776Z,59
2019-02-25T00:25:28.828Z,59
2019-02-25T00:26:28.843Z,59
2019-02-25T00:27:28.864Z,59
2019-02-25T00:28:29.392Z,59
2019-02-25T00:29:29.047Z,59
2019-02-25T00:30:29.059Z,59
2019-02-25T00:31:29.081Z,59
2019-02-25T00:32:29.100Z,59
2019-02-25T00:33:29.163Z,59
2019-02-25T00:34:29.265Z,59
2019-02-25T00:35:29.283Z,59
2019-02-25T00:36:29.299Z,60
2019-02-25T00:37:29.375Z,60
2019-02-25T00:38:29.401Z,60
2019-02-25T00:39:29.479Z,60
2019-02-25T00:40:29.532Z,60
2019-02-25T00:41:29.635Z,60
2019-02-25T00:42:29.635Z,60
2019-02-25T00:43:29.640Z,59
2019-02-25T00:44:29.692Z,60
2019-02-25T00:45:29.733Z,60
2019-02-25T00:46:29.816Z,60
2019-02-25T00:48:29.853Z,60
2019-02-25T00:48:34.898Z,60
2019-02-25T00:49:29.886Z,60
2019-02-25T00:50:29.917Z,60
2019-02-25T00:51:29.992Z,60
2019-02-25T00:52:30.038Z,60
2019-02-25T00:53:30.069Z,59
2019-02-25T00:54:30.116Z,60
2019-02-25T00:55:30.143Z,59
2019-02-25T00:56:30.165Z,59
2019-02-25T00:57:30.220Z,59
2019-02-25T00:58:30.251Z,59
2019-02-25T00:59:30.279Z,59
2019-02-25T01:00:30.305Z,59
2019-02-25T01:01:30.308Z,59
2019-02-25T01:02:30.340Z,58
2019-02-25T01:03:30.396Z,59
2019-02-25T01:04:30.400Z,60
2019-02-25T01:05:30.403Z,60
2019-02-25T01:06:30.447Z,60
2019-02-25T01:07:30.510Z,60
2019-02-25T01:08:30.501Z,60
2019-02-25T01:09:30.558Z,60
2019-02-25T01:10:31.413Z,60
2019-02-25T01:11:30.612Z,60
2019-02-25T01:12:30.671Z,60
2019-02-25T01:13:30.674Z,60
2019-02-25T01:14:30.686Z,60
2019-02-25T01:15:30.732Z,60
2019-02-25T01:16:30.766Z,60
2019-02-25T01:17:30.778Z,60
2019-02-25T01:18:30.819Z,60
2019-02-25T01:19:30.845Z,60
2019-02-25T01:20:30.861Z,60
2019-02-25T01:21:30.897Z,60
2019-02-25T01:22:30.907Z,60
2019-02-25T01:23:30.900Z,60
2019-02-25T01:24:30.936Z,60
2019-02-25T01:25:30.996Z,60
2019-02-25T01:26:30.972Z,60
2019-02-25T01:27:31.013Z,60
2019-02-25T01:28:31.016Z,60
2019-02-25T01:29:31.071Z,60
2019-02-25T01:30:31.061Z,60
2019-02-25T01:31:31.062Z,60
2019-02-25T01:32:31.093Z,59
2019-02-25T01:33:31.127Z,59
2019-02-25T01:34:31.155Z,60
2019-02-25T01:35:31.135Z,60
2019-02-25T01:36:31.161Z,60
2019-02-25T01:37:31.154Z,60
2019-02-25T01:38:31.192Z,60
2019-02-25T01:39:31.240Z,60
2019-02-25T01:40:31.165Z,61
2019-02-25T01:41:31.188Z,59
2019-02-25T01:42:31.194Z,59
2019-02-25T01:43:31.285Z,59
2019-02-25T01:44:31.208Z,59
2019-02-25T01:45:31.225Z,60
2019-02-25T01:46:31.235Z,59
2019-02-25T01:47:31.238Z,60
2019-02-25T01:48:31.327Z,59
2019-02-25T01:49:31.383Z,59
2019-02-25T01:50:31.509Z,59
2019-02-25T01:51:31.541Z,59
2019-02-25T01:52:31.502Z,59
2019-02-25T01:53:31.513Z,59
2019-02-25T01:54:31.573Z,59
2019-02-25T01:55:31.652Z,59
2019-02-25T01:56:31.675Z,59
2019-02-25T01:57:31.716Z,59
2019-02-25T01:58:31.750Z,59
2019-02-25T01:59:31.834Z,58
2019-02-25T02:00:31.926Z,58
2019-02-25T02:01:32.007Z,58
2019-02-25T02:02:32.009Z,58
2019-02-25T02:03:32.075Z,58
2019-02-25T02:04:32.169Z,58
2019-02-25T02:05:32.161Z,58
2019-02-25T02:06:32.151Z,58
2019-02-25T02:07:32.174Z,58
2019-02-25T02:08:32.286Z,58
2019-02-25T02:09:32.339Z,58
2019-02-25T02:10:32.351Z,58
2019-02-25T02:11:32.391Z,58
2019-02-25T02:12:32.472Z,58
2019-02-25T02:13:32.555Z,58
2019-02-25T02:14:32.615Z,58
2019-02-25T02:15:32.633Z,59
2019-02-25T02:16:32.717Z,58
2019-02-25T02:17:32.706Z,58
2019-02-25T02:18:32.778Z,57
2019-02-25T02:19:32.842Z,57
2019-02-25T02:20:32.825Z,57
2019-02-25T02:21:32.885Z,57
2019-02-25T02:22:32.890Z,58
2019-02-25T02:23:33.001Z,57
2019-02-25T02:24:32.979Z,57
2019-02-25T02:25:33.050Z,57
2019-02-25T02:26:33.093Z,57
2019-02-25T02:27:33.146Z,57
2019-02-25T02:28:33.153Z,57
2019-02-25T02:29:33.190Z,57
2019-02-25T02:30:33.254Z,57
2019-02-25T02:31:33.309Z,57
2019-02-25T02:32:33.431Z,57
2019-02-25T02:33:33.374Z,57
2019-02-25T02:34:33.410Z,57
2019-02-25T02:35:33.473Z,57
2019-02-25T02:36:33.473Z,57
2019-02-25T02:37:33.523Z,57
2019-02-25T02:38:33.564Z,57
2019-02-25T02:39:33.572Z,57
2019-02-25T02:40:33.618Z,56
2019-02-25T02:41:33.652Z,56
2019-02-25T02:42:33.640Z,56
2019-02-25T02:43:34.791Z,56
2019-02-25T02:44:33.723Z,56
2019-02-25T02:45:33.742Z,56
2019-02-25T02:46:33.823Z,56
2019-02-25T02:47:33.835Z,55
2019-02-25T02:48:33.936Z,56
2019-02-25T02:49:33.884Z,56
2019-02-25T02:50:33.957Z,56
2019-02-25T02:51:33.945Z,55
2019-02-25T02:52:34.006Z,55
2019-02-25T02:53:33.983Z,55
2019-02-25T02:54:34.016Z,55
2019-02-25T02:55:34.024Z,55
2019-02-25T02:56:34.067Z,56
2019-02-25T02:57:34.091Z,56
2019-02-25T02:58:34.092Z,56
2019-02-25T02:59:34.108Z,56
2019-02-25T03:00:34.167Z,56
2019-02-25T03:01:34.163Z,55
2019-02-25T03:02:34.179Z,55
2019-02-25T03:03:34.218Z,56
2019-02-25T03:04:34.259Z,56
2019-02-25T03:05:34.255Z,56
2019-02-25T03:06:34.261Z,56
2019-02-25T03:07:34.285Z,56
2019-02-25T03:08:34.288Z,56
2019-02-25T03:09:34.318Z,55
2019-02-25T03:10:34.325Z,55
2019-02-25T03:11:34.316Z,56
2019-02-25T03:12:34.378Z,56
2019-02-25T03:13:34.352Z,56
2019-02-25T03:14:34.371Z,56
2019-02-25T03:15:34.388Z,56
2019-02-25T03:16:34.397Z,56
2019-02-25T03:17:34.385Z,56
2019-02-25T03:18:34.400Z,55
2019-02-25T03:19:34.446Z,55
2019-02-25T03:20:34.410Z,55
2019-02-25T03:21:34.488Z,55
2019-02-25T03:22:34.440Z,55
2019-02-25T03:23:34.491Z,55
2019-02-25T03:24:34.550Z,55
2019-02-25T03:25:34.607Z,55
2019-02-25T03:26:34.669Z,54
2019-02-25T03:27:34.739Z,54
2019-02-25T03:28:34.774Z,54
2019-02-25T03:29:34.819Z,54
2019-02-25T03:30:34.894Z,54
2019-02-25T03:31:34.941Z,55
2019-02-25T03:32:35.008Z,54
2019-02-25T03:33:35.069Z,54
2019-02-25T03:34:35.195Z,54
2019-02-25T03:35:35.562Z,54
2019-02-25T03:36:35.187Z,54
2019-02-25T03:37:36.277Z,54
2019-02-25T03:38:35.292Z,54
2019-02-25T03:39:35.338Z,54
2019-02-25T03:40:35.392Z,54
2019-02-25T03:41:35.473Z,54
2019-02-25T03:42:35.496Z,55
2019-02-25T03:43:35.553Z,55
2019-02-25T03:44:35.592Z,54
2019-02-25T03:45:35.677Z,54
2019-02-25T03:46:35.680Z,54
2019-02-25T03:47:35.753Z,55
2019-02-25T03:48:35.802Z,55
2019-02-25T03:49:35.940Z,55
2019-02-25T03:50:35.897Z,55
2019-02-25T03:51:36.091Z,54
2019-02-25T03:52:36.004Z,54
2019-02-25T03:53:36.049Z,54
2019-02-25T03:54:36.053Z,54
2019-02-25T03:55:36.101Z,54
2019-02-25T03:56:36.165Z,54
2019-02-25T03:57:36.223Z,54
2019-02-25T03:58:36.238Z,54
2019-02-25T03:59:36.284Z,54
2019-02-25T04:00:36.287Z,54
2019-02-25T04:01:36.307Z,54
2019-02-25T04:02:36.390Z,54
2019-02-25T04:03:36.395Z,54
2019-02-25T04:04:36.417Z,53
2019-02-25T04:05:36.438Z,53
2019-02-25T04:06:36.459Z,53
2019-02-25T04:07:36.494Z,53
2019-02-25T04:08:36.577Z,54
2019-02-25T04:09:36.600Z,54
2019-02-25T04:10:36.647Z,53
2019-02-25T04:11:36.676Z,53
2019-02-25T04:12:36.757Z,54
2019-02-25T04:13:36.775Z,54
2019-02-25T04:14:36.785Z,54
2019-02-25T04:15:36.839Z,54
2019-02-25T04:16:36.975Z,54
2019-02-25T04:17:36.903Z,54
2019-02-25T04:18:36.918Z,54
2019-02-25T04:19:36.976Z,54
2019-02-25T04:20:37.012Z,52
2019-02-25T04:21:37.017Z,53
2019-02-25T04:22:37.081Z,54
2019-02-25T04:23:37.103Z,53
2019-02-25T04:24:37.145Z,53
2019-02-25T04:25:37.155Z,54
2019-02-25T04:26:37.185Z,54
2019-02-25T04:27:37.248Z,54
2019-02-25T04:28:37.227Z,54
2019-02-25T04:29:37.238Z,53
2019-02-25T04:30:37.270Z,54
2019-02-25T04:31:37.279Z,54
2019-02-25T04:32:37.403Z,54
2019-02-25T04:33:37.339Z,54
2019-02-25T04:34:37.357Z,54
2019-02-25T04:35:37.402Z,54
2019-02-25T04:36:37.418Z,54
2019-02-25T04:37:37.449Z,54
2019-02-25T04:38:37.468Z,54
2019-02-25T04:39:37.505Z,55
2019-02-25T04:40:37.515Z,55
2019-02-25T04:41:37.614Z,54
2019-02-25T04:42:37.617Z,55
2019-02-25T04:43:37.596Z,55
2019-02-25T04:44:37.593Z,54
2019-02-25T04:45:37.628Z,54
2019-02-25T04:46:37.659Z,54
2019-02-25T04:47:37.714Z,54
2019-02-25T04:48:37.681Z,54
2019-02-25T04:49:37.721Z,54
2019-02-25T04:50:37.685Z,54
2019-02-25T04:51:40.233Z,54
2019-02-25T04:52:37.738Z,54
2019-02-25T04:53:37.743Z,54
2019-02-25T04:54:37.739Z,54
2019-02-25T04:55:37.771Z,54
2019-02-25T04:56:37.775Z,54
2019-02-25T04:57:37.822Z,55
2019-02-25T04:58:37.850Z,54
2019-02-25T04:59:37.834Z,54
2019-02-25T05:00:37.840Z,54
2019-02-25T05:01:37.856Z,54
2019-02-25T05:02:37.875Z,53
2019-02-25T05:03:37.868Z,54
2019-02-25T05:04:37.841Z,54
2019-02-25T05:05:37.912Z,53
2019-02-25T05:06:37.915Z,54
2019-02-25T05:07:37.969Z,54
2019-02-25T05:08:38.026Z,54
2019-02-25T05:09:38.099Z,54
2019-02-25T05:10:38.160Z,54
2019-02-25T05:11:38.241Z,53
2019-02-25T05:12:38.317Z,53
2019-02-25T05:13:38.324Z,53
2019-02-25T05:14:38.385Z,53
2019-02-25T05:15:38.494Z,53
2019-02-25T05:16:40.008Z,53
2019-02-25T05:17:38.530Z,53
2019-02-25T05:18:38.545Z,53
2019-02-25T05:19:40.882Z,53
2019-02-25T05:20:38.676Z,53
2019-02-25T05:21:38.735Z,52
2019-02-25T05:22:38.791Z,53
2019-02-25T05:23:38.812Z,52
2019-02-25T05:24:38.880Z,52
2019-02-25T05:25:38.968Z,52
2019-02-25T05:26:39.043Z,52
2019-02-25T05:27:39.123Z,53
2019-02-25T05:28:39.082Z,53
2019-02-25T05:29:39.127Z,52
2019-02-25T05:30:39.197Z,51
2019-02-25T05:31:39.275Z,51
2019-02-25T05:32:39.338Z,52
2019-02-25T05:33:39.363Z,52
2019-02-25T05:34:39.433Z,53
2019-02-25T05:35:39.514Z,53
2019-02-25T05:36:39.583Z,53
2019-02-25T05:37:39.578Z,53
2019-02-25T05:38:39.578Z,53
2019-02-25T05:39:39.646Z,53
2019-02-25T05:40:39.705Z,53
2019-02-25T05:41:39.794Z,53
2019-02-25T05:42:39.810Z,53
2019-02-25T05:43:39.866Z,53
2019-02-25T05:44:39.894Z,54
2019-02-25T05:45:39.948Z,54
2019-02-25T05:46:39.970Z,54
2019-02-25T05:47:40.010Z,53
2019-02-25T05:48:40.041Z,53
2019-02-25T05:49:40.075Z,53
2019-02-25T05:50:40.192Z,53
2019-02-25T05:51:40.200Z,52
2019-02-25T05:52:40.186Z,52
2019-02-25T05:53:40.244Z,51
2019-02-25T05:54:40.304Z,52
2019-02-25T05:55:40.344Z,52
2019-02-25T05:56:40.338Z,52
2019-02-25T05:57:40.400Z,52
2019-02-25T05:58:40.440Z,52
2019-02-25T05:59:40.462Z,52
2019-02-25T06:00:40.554Z,52
2019-02-25T06:01:40.563Z,52
2019-02-25T06:02:40.550Z,52
2019-02-25T06:03:40.603Z,52
2019-02-25T06:04:40.650Z,51
2019-02-25T06:05:40.702Z,52
2019-02-25T06:06:40.710Z,51
2019-02-25T06:07:40.754Z,51
2019-02-25T06:08:40.775Z,51
2019-02-25T06:09:40.799Z,51
2019-02-25T06:10:40.801Z,51
2019-02-25T06:11:40.826Z,51
2019-02-25T06:12:40.884Z,51
2019-02-25T06:13:40.903Z,51
2019-02-25T06:14:40.916Z,52
2019-02-25T06:15:40.951Z,52
2019-02-25T06:16:40.979Z,52
2019-02-25T06:17:40.993Z,52
2019-02-25T06:18:41.036Z,52
2019-02-25T06:19:41.077Z,53
2019-02-25T06:20:41.079Z,52
2019-02-25T06:21:41.083Z,52
2019-02-25T06:22:41.141Z,53
2019-02-25T06:23:41.136Z,53
2019-02-25T06:24:41.139Z,53
2019-02-25T06:25:41.187Z,52
2019-02-25T06:26:41.242Z,52
2019-02-25T06:27:41.242Z,53
2019-02-25T06:28:41.287Z,54
2019-02-25T06:29:41.308Z,53
2019-02-25T06:30:41.362Z,53
2019-02-25T06:31:41.349Z,53
2019-02-25T06:32:41.394Z,53
2019-02-25T06:33:41.418Z,53
2019-02-25T06:34:41.394Z,53
2019-02-25T06:35:41.448Z,52
2019-02-25T06:36:41.443Z,52
2019-02-25T06:37:41.483Z,52
2019-02-25T06:38:41.500Z,51
2019-02-25T06:39:41.525Z,52
2019-02-25T06:40:41.522Z,52
2019-02-25T06:41:41.541Z,52
2019-02-25T06:42:41.563Z,53
2019-02-25T06:43:41.576Z,53
2019-02-25T06:44:41.601Z,53
2019-02-25T06:45:41.638Z,53
2019-02-25T06:46:41.607Z,52
2019-02-25T06:47:41.613Z,52
2019-02-25T06:48:42.116Z,52
2019-02-25T06:49:41.619Z,51
2019-02-25T06:50:41.640Z,52
2019-02-25T06:51:41.668Z,52
2019-02-25T06:52:41.787Z,52
2019-02-25T06:53:41.695Z,52
2019-02-25T06:54:41.684Z,52
2019-02-25T06:55:41.672Z,52
2019-02-25T06:56:41.661Z,52
2019-02-25T06:57:41.699Z,53
2019-02-25T06:58:41.701Z,52
2019-02-25T06:59:41.837Z,52
2019-02-25T07:00:41.822Z,52
2019-02-25T07:01:41.860Z,52
2019-02-25T07:02:41.970Z,52
2019-02-25T07:03:43.561Z,51
2019-02-25T07:04:41.983Z,51
2019-02-25T07:05:42.086Z,51
2019-02-25T07:06:42.143Z,51
2019-02-25T07:07:42.181Z,52
2019-02-25T07:08:42.220Z,52
2019-02-25T07:09:42.276Z,52
2019-02-25T07:10:42.425Z,52
2019-02-25T07:11:42.336Z,51
2019-02-25T07:12:42.405Z,50
2019-02-25T07:13:42.407Z,51
2019-02-25T07:14:42.419Z,52
2019-02-25T07:15:42.426Z,51
2019-02-25T07:16:42.494Z,51
2019-02-25T07:17:42.505Z,51
2019-02-25T07:18:42.560Z,52
2019-02-25T07:19:42.620Z,52
2019-02-25T07:20:42.830Z,52
2019-02-25T07:21:42.727Z,52
2019-02-25T07:22:42.750Z,53
2019-02-25T07:23:42.863Z,52
2019-02-25T07:24:42.791Z,51
2019-02-25T07:25:42.850Z,51
2019-02-25T07:26:42.861Z,50
2019-02-25T07:27:42.891Z,49
2019-02-25T07:28:42.963Z,49
2019-02-25T07:29:43.038Z,49
2019-02-25T07:30:43.045Z,49
2019-02-25T07:31:43.084Z,49
2019-02-25T07:32:43.121Z,48
2019-02-25T07:33:43.208Z,48
2019-02-25T07:34:43.165Z,47
2019-02-25T07:35:43.187Z,47
2019-02-25T07:36:43.209Z,48
2019-02-25T07:37:43.282Z,47
2019-02-25T07:38:43.260Z,47
2019-02-25T07:39:43.278Z,48
2019-02-25T07:40:43.354Z,47
2019-02-25T07:41:43.404Z,45
2019-02-25T07:42:43.425Z,46
2019-02-25T07:43:45.755Z,45
2019-02-25T07:44:43.520Z,44
2019-02-25T07:45:43.595Z,44
2019-02-25T07:46:43.618Z,44
2019-02-25T07:47:43.625Z,44
2019-02-25T07:48:43.658Z,44
2019-02-25T07:49:43.717Z,45
2019-02-25T07:50:47.080Z,45
2019-02-25T07:51:43.829Z,43
2019-02-25T07:52:43.814Z,42
2019-02-25T07:53:43.832Z,41
2019-02-25T07:54:43.880Z,41
2019-02-25T07:55:43.904Z,42
2019-02-25T07:56:44.009Z,41
2019-02-25T07:57:43.973Z,43
2019-02-25T07:58:43.993Z,41
2019-02-25T07:59:44.069Z,40
2019-02-25T08:00:44.111Z,41
2019-02-25T08:01:44.098Z,40
2019-02-25T08:03:16.191Z,40
2019-02-25T08:03:44.213Z,40
2019-02-25T08:04:44.203Z,41
2019-02-25T08:05:44.217Z,38
2019-02-25T08:06:44.265Z,37
2019-02-25T08:07:44.311Z,38
2019-02-25T08:08:44.306Z,38
2019-02-25T08:09:44.294Z,38
2019-02-25T08:10:44.335Z,37
2019-02-25T08:11:44.390Z,37
2019-02-25T08:12:44.378Z,36
2019-02-25T08:13:45.424Z,36
2019-02-25T08:14:44.430Z,37
2019-02-25T08:15:44.445Z,37
2019-02-25T08:16:44.472Z,35
2019-02-25T08:17:44.498Z,37
2019-02-25T08:18:44.483Z,38
2019-02-25T08:19:44.566Z,36
2019-02-25T08:20:44.553Z,37
2019-02-25T08:21:44.571Z,37
2019-02-25T08:22:44.612Z,35
2019-02-25T08:23:44.595Z,35
2019-02-25T08:24:44.648Z,35
2019-02-25T08:25:44.602Z,34
2019-02-25T08:26:44.627Z,36
2019-02-25T08:27:44.637Z,36
2019-02-25T08:28:44.645Z,36
2019-02-25T08:29:44.671Z,36
2019-02-25T08:30:44.675Z,37
2019-02-25T08:31:44.682Z,36
2019-02-25T08:32:44.692Z,36
2019-02-25T08:33:44.709Z,35
2019-02-25T08:34:44.729Z,35
2019-02-25T08:35:44.717Z,34
2019-02-25T08:36:44.698Z,36
2019-02-25T08:37:44.798Z,35
2019-02-25T08:38:44.872Z,34
2019-02-25T08:39:44.904Z,33
2019-02-25T08:40:44.944Z,33
2019-02-25T08:41:45.026Z,32
2019-02-25T08:42:45.091Z,32
2019-02-25T08:43:45.098Z,30
2019-02-25T08:44:45.170Z,31
2019-02-25T08:45:45.187Z,30
2019-02-25T08:46:45.236Z,28
2019-02-25T08:47:45.305Z,28
2019-02-25T08:48:45.413Z,27
2019-02-25T08:49:45.439Z,27
2019-02-25T08:50:45.502Z,27
2019-02-25T08:51:45.607Z,27
2019-02-25T08:52:45.631Z,27
2019-02-25T08:53:45.696Z,27
2019-02-25T08:54:45.776Z,26
2019-02-25T08:55:45.818Z,25
2019-02-25T08:56:45.838Z,25
2019-02-25T08:57:45.886Z,25
2019-02-25T08:58:45.910Z,25
2019-02-25T08:59:45.954Z,27
2019-02-25T09:00:46.008Z,24
2019-02-25T09:01:46.046Z,25
2019-02-25T09:02:46.064Z,24
2019-02-25T09:03:46.149Z,25
2019-02-25T09:04:46.133Z,26
2019-02-25T09:05:46.203Z,25
2019-02-25T09:06:46.261Z,25
2019-02-25T09:07:46.324Z,24
2019-02-25T09:08:46.393Z,24
2019-02-25T09:09:46.444Z,25
2019-02-25T09:10:46.470Z,26
2019-02-25T09:11:46.518Z,25
2019-02-25T09:12:46.529Z,24
2019-02-25T09:13:46.512Z,24
2019-02-25T09:14:46.521Z,25
2019-02-25T09:15:46.631Z,25
2019-02-25T09:16:46.639Z,24
2019-02-25T09:17:46.702Z,25
2019-02-25T09:18:46.758Z,24
2019-02-25T09:19:46.782Z,25
2019-02-25T09:20:46.835Z,25
2019-02-25T09:21:46.842Z,25
2019-02-25T09:22:46.915Z,23
2019-02-25T09:23:46.899Z,25
2019-02-25T09:24:46.949Z,24
2019-02-25T09:25:47.027Z,25
2019-02-25T09:26:47.039Z,24
2019-02-25T09:27:47.147Z,23
2019-02-25T09:28:47.154Z,22
2019-02-25T09:29:47.200Z,22
2019-02-25T09:30:47.276Z,22
2019-02-25T09:31:47.258Z,25
2019-02-25T09:32:47.338Z,22
2019-02-25T09:33:47.383Z,22
2019-02-25T09:34:47.389Z,20
2019-02-25T09:35:47.416Z,21
2019-02-25T09:36:47.433Z,21
2019-02-25T09:37:47.457Z,21
2019-02-25T09:38:47.478Z,22
2019-02-25T09:39:47.545Z,22
2019-02-25T09:40:47.537Z,23
2019-02-25T09:41:47.595Z,23
2019-02-25T09:42:47.600Z,21
2019-02-25T09:43:47.624Z,21
2019-02-25T09:44:47.690Z,22
2019-02-25T09:45:47.687Z,21
2019-02-25T09:46:47.711Z,20
2019-02-25T09:47:47.735Z,20
2019-02-25T09:48:47.766Z,21
2019-02-25T09:49:47.779Z,21
2019-02-25T09:50:47.786Z,20
2019-02-25T09:51:47.772Z,20
2019-02-25T09:52:47.817Z,20
2019-02-25T09:53:47.900Z,20
2019-02-25T09:54:50.352Z,20
2019-02-25T09:55:47.856Z,21
2019-02-25T09:56:47.886Z,22
2019-02-25T09:57:47.903Z,21
2019-02-25T09:58:47.941Z,21
2019-02-25T09:59:47.973Z,20
2019-02-25T10:00:48.391Z,21
2019-02-25T10:01:47.979Z,20
2019-02-25T10:02:47.985Z,20
2019-02-25T10:03:47.995Z,20
2019-02-25T10:04:48.016Z,20
2019-02-25T10:05:48.021Z,21
2019-02-25T10:06:48.033Z,21
2019-02-25T10:07:48.057Z,20
2019-02-25T10:08:48.037Z,19
2019-02-25T10:09:48.033Z,19
2019-02-25T10:10:48.060Z,18
2019-02-25T10:11:48.729Z,18
2019-02-25T10:12:48.054Z,18
2019-02-25T10:13:48.098Z,18
2019-02-25T10:14:49.482Z,18
2019-02-25T10:15:48.066Z,18
2019-02-25T10:16:48.317Z,19
2019-02-25T10:17:48.231Z,19
2019-02-25T10:18:48.322Z,18
2019-02-25T10:19:48.392Z,18
2019-02-25T10:20:48.416Z,18
2019-02-25T10:21:48.446Z,18
2019-02-25T10:22:48.461Z,21
2019-02-25T10:23:48.504Z,19
2019-02-25T10:24:48.536Z,20
2019-02-25T10:25:48.589Z,19
2019-02-25T10:26:48.743Z,19
2019-02-25T10:27:49.568Z,18
2019-02-25T10:28:48.684Z,18
2019-02-25T10:29:48.778Z,18
2019-02-25T10:30:52.698Z,18
2019-02-25T10:31:48.886Z,19
2019-02-25T10:32:49.008Z,20
2019-02-25T10:33:50.632Z,18
2019-02-25T10:34:48.968Z,18
2019-02-25T10:35:49.082Z,18
2019-02-25T10:36:50.279Z,18
2019-02-25T10:37:49.167Z,18
2019-02-25T10:38:49.176Z,18
2019-02-25T10:39:49.529Z,19
2019-02-25T10:40:49.956Z,18
2019-02-25T10:41:51.002Z,19
2019-02-25T10:42:49.358Z,20
2019-02-25T10:43:49.972Z,19
2019-02-25T10:44:49.474Z,18
2019-02-25T10:45:49.513Z,19
2019-02-25T10:46:49.619Z,19
2019-02-25T10:47:51.223Z,19
2019-02-25T10:48:51.908Z,19
2019-02-25T10:49:49.642Z,19
2019-02-25T10:50:55.888Z,20
2019-02-25T10:51:49.738Z,20
2019-02-25T10:52:49.778Z,19
2019-02-25T10:53:51.473Z,20
2019-02-25T10:54:51.543Z,19
2019-02-25T10:55:50.861Z,20
2019-02-25T10:56:51.570Z,19
2019-02-25T10:57:50.025Z,19
2019-02-25T10:58:50.072Z,20
2019-02-25T10:59:50.095Z,20
2019-02-25T11:00:50.124Z,19
2019-02-25T11:01:50.161Z,18
2019-02-25T11:02:51.159Z,18
2019-02-25T11:03:51.945Z,18
2019-02-25T11:04:51.404Z,18
2019-02-25T11:05:51.683Z,18
2019-02-25T11:06:50.398Z,18
2019-02-25T11:07:50.410Z,19
2019-02-25T11:08:50.473Z,18
2019-02-25T11:09:50.490Z,18
2019-02-25T11:10:51.122Z,18
2019-02-25T11:11:51.109Z,18
2019-02-25T11:12:50.559Z,17
2019-02-25T11:13:50.593Z,18
2019-02-25T11:14:50.749Z,18
2019-02-25T11:15:50.619Z,17
2019-02-25T11:16:52.185Z,18
2019-02-25T11:17:51.744Z,19
2019-02-25T11:18:52.683Z,19
2019-02-25T11:19:50.770Z,18
2019-02-25T11:20:50.799Z,19
2019-02-25T11:21:50.834Z,19
2019-02-25T11:22:50.834Z,19
2019-02-25T11:23:52.851Z,18
2019-02-25T11:24:51.769Z,19
2019-02-25T11:25:51.461Z,18
2019-02-25T11:26:50.885Z,19
2019-02-25T11:27:50.878Z,18
2019-02-25T11:28:50.918Z,17
2019-02-25T11:29:50.972Z,18
2019-02-25T11:30:51.884Z,19
2019-02-25T11:31:51.516Z,18
2019-02-25T11:32:52.924Z,19
2019-02-25T11:33:51.023Z,19
2019-02-25T11:34:51.059Z,19
2019-02-25T11:35:51.096Z,20
2019-02-25T11:36:53.059Z,19
2019-02-25T11:37:51.933Z,19
2019-02-25T11:38:51.107Z,19
2019-02-25T11:39:52.577Z,19
2019-02-25T11:40:51.157Z,20
2019-02-25T11:41:51.170Z,19
2019-02-25T11:42:51.199Z,19
2019-02-25T11:43:52.778Z,20
2019-02-25T11:44:51.886Z,19
2019-02-25T11:45:51.193Z,19
2019-02-25T11:46:51.200Z,20
2019-02-25T11:47:51.237Z,19
2019-02-25T11:48:51.219Z,18
2019-02-25T11:49:51.234Z,20
2019-02-25T11:50:51.249Z,18
2019-02-25T11:51:51.242Z,19
2019-02-25T11:52:51.249Z,19
2019-02-25T11:53:51.251Z,19
2019-02-25T11:54:51.257Z,19
2019-02-25T11:56:23.388Z,19
2019-02-25T11:56:51.376Z,19
2019-02-25T11:57:51.403Z,20
2019-02-25T11:58:51.407Z,19
2019-02-25T11:59:51.507Z,19
2019-02-25T12:00:51.486Z,19
2019-02-25T12:01:51.581Z,19
2019-02-25T12:02:51.608Z,20
2019-02-25T12:03:51.674Z,20
2019-02-25T12:04:51.724Z,20
2019-02-25T12:05:52.547Z,20
2019-02-25T12:06:51.858Z,20
2019-02-25T12:07:51.869Z,20
2019-02-25T12:08:51.889Z,19
2019-02-25T12:09:51.931Z,19
2019-02-25T12:10:52.006Z,20
2019-02-25T12:11:52.054Z,19
2019-02-25T12:12:52.136Z,19
2019-02-25T12:13:52.195Z,20
2019-02-25T12:14:52.219Z,20
2019-02-25T12:15:52.259Z,21
2019-02-25T12:16:52.327Z,19
2019-02-25T12:17:52.358Z,20
2019-02-25T12:18:52.393Z,19
2019-02-25T12:19:52.451Z,19
2019-02-25T12:20:52.467Z,18
2019-02-25T12:21:52.499Z,19
2019-02-25T12:22:52.532Z,19
2019-02-25T12:23:52.563Z,20
2019-02-25T12:24:52.601Z,19
2019-02-25T12:25:52.710Z,19
2019-02-25T12:26:52.680Z,20
2019-02-25T12:27:52.774Z,20
2019-02-25T12:28:52.884Z,18
2019-02-25T12:29:52.872Z,19
2019-02-25T12:30:52.885Z,19
2019-02-25T12:31:52.937Z,19
2019-02-25T12:32:52.995Z,19
2019-02-25T12:33:53.025Z,19
2019-02-25T12:34:53.072Z,19
2019-02-25T12:35:53.095Z,20
2019-02-25T12:36:53.152Z,21
2019-02-25T12:37:53.201Z,20
2019-02-25T12:38:53.262Z,19
2019-02-25T12:39:53.251Z,19
2019-02-25T12:40:53.282Z,19
2019-02-25T12:41:53.364Z,19
2019-02-25T12:42:53.391Z,19
2019-02-25T12:43:53.439Z,20
2019-02-25T12:44:53.433Z,20
2019-02-25T12:45:53.478Z,20
2019-02-25T12:46:53.487Z,20
2019-02-25T12:47:53.556Z,20
2019-02-25T12:48:53.627Z,20
2019-02-25T12:49:53.596Z,20
2019-02-25T12:50:53.664Z,20
2019-02-25T12:51:53.683Z,21
2019-02-25T12:52:53.763Z,20
2019-02-25T12:53:53.736Z,22
2019-02-25T12:54:53.775Z,19
2019-02-25T12:55:53.822Z,20
2019-02-25T12:56:53.822Z,20
2019-02-25T12:57:53.890Z,20
2019-02-25T12:58:53.881Z,20
2019-02-25T12:59:53.907Z,20
2019-02-25T13:00:53.951Z,20
2019-02-25T13:01:53.940Z,20
2019-02-25T13:02:54.008Z,20
2019-02-25T13:03:53.992Z,20
2019-02-25T13:04:54.023Z,20
2019-02-25T13:05:54.065Z,19
2019-02-25T13:06:54.117Z,20
2019-02-25T13:07:54.126Z,20
2019-02-25T13:08:54.121Z,20
2019-02-25T13:09:54.117Z,19
2019-02-25T13:10:54.151Z,19
2019-02-25T13:11:54.267Z,19
2019-02-25T13:12:54.189Z,19
2019-02-25T13:13:54.671Z,19
2019-02-25T13:14:54.343Z,19
2019-02-25T13:15:54.223Z,19
2019-02-25T13:16:54.248Z,18
2019-02-25T13:17:54.306Z,19
2019-02-25T13:18:54.290Z,19
2019-02-25T13:19:54.297Z,19
2019-02-25T13:20:54.403Z,17
2019-02-25T13:21:54.327Z,18
2019-02-25T13:22:54.308Z,17
2019-02-25T13:23:54.738Z,18
2019-02-25T13:24:54.321Z,18
2019-02-25T13:25:54.368Z,18
2019-02-25T13:26:54.333Z,18
2019-02-25T13:27:56.422Z,17
2019-02-25T13:28:54.361Z,18
2019-02-25T13:29:54.381Z,16
2019-02-25T13:30:54.396Z,16
2019-02-25T13:31:54.481Z,16
2019-02-25T13:32:54.462Z,17
2019-02-25T13:33:54.541Z,17
2019-02-25T13:34:54.636Z,15
2019-02-25T13:35:54.632Z,15
2019-02-25T13:36:54.625Z,16
2019-02-25T13:37:54.687Z,16
2019-02-25T13:38:54.772Z,16
2019-02-25T13:39:54.814Z,16
2019-02-25T13:40:54.882Z,16
2019-02-25T13:41:54.958Z,15
2019-02-25T13:42:55.007Z,14
2019-02-25T13:43:55.086Z,15
2019-02-25T13:44:55.078Z,15
2019-02-25T13:45:55.083Z,15
2019-02-25T13:46:55.194Z,15
2019-02-25T13:47:55.218Z,16
2019-02-25T13:48:57.360Z,16
2019-02-25T13:49:55.597Z,16
2019-02-25T13:50:55.368Z,16
2019-02-25T13:51:55.521Z,16
2019-02-25T13:52:55.497Z,16
2019-02-25T13:53:55.572Z,17
2019-02-25T13:54:55.603Z,16
2019-02-25T13:55:55.674Z,17
2019-02-25T13:56:55.713Z,17
2019-02-25T13:57:57.514Z,16
2019-02-25T13:58:55.807Z,16
2019-02-25T13:59:55.885Z,15
2019-02-25T14:00:55.900Z,15
2019-02-25T14:01:55.952Z,15
2019-02-25T14:02:56.014Z,16
2019-02-25T14:03:56.032Z,16
2019-02-25T14:04:56.105Z,16
2019-02-25T14:05:56.133Z,16
2019-02-25T14:06:56.214Z,16
2019-02-25T14:07:56.260Z,15
2019-02-25T14:08:56.299Z,16
2019-02-25T14:09:56.340Z,15
2019-02-25T14:10:56.341Z,15
2019-02-25T14:11:56.403Z,16
2019-02-25T14:12:56.454Z,16
2019-02-25T14:13:56.489Z,16
2019-02-25T14:14:56.511Z,16
2019-02-25T14:15:56.520Z,16